sensor_id;sensor_type;location;lat;lon;timestamp;pressure;altitude;pressure_sealevel;temperature;humidity
21988;BME280;11158;53.404;-1.510;2024-03-08T00:01:52;100901.88;;;4.41;87.25
21988;BME280;11158;53.404;-1.510;2024-03-08T00:04:18;100897.44;;;4.46;86.10
21988;BME280;11158;53.404;-1.510;2024-03-08T00:06:43;100900.94;;;4.46;87.44
21988;BME280;11158;53.404;-1.510;2024-03-08T00:09:13;100894.75;;;4.49;88.10
21988;BME280;11158;53.404;-1.510;2024-03-08T00:11:39;100890.38;;;4.48;89.30
21988;BME280;11158;53.404;-1.510;2024-03-08T00:14:04;100892.16;;;4.46;89.28
21988;BME280;11158;53.404;-1.510;2024-03-08T00:16:33;100890.41;;;4.45;88.94
21988;BME280;11158;53.404;-1.510;2024-03-08T00:19:00;100885.97;;;4.50;93.27
21988;BME280;11158;53.404;-1.510;2024-03-08T00:21:26;100882.47;;;4.43;89.46
21988;BME280;11158;53.404;-1.510;2024-03-08T00:23:52;100885.16;;;4.40;90.17
21988;BME280;11158;53.404;-1.510;2024-03-08T00:26:20;100870.22;;;4.39;91.17
21988;BME280;11158;53.404;-1.510;2024-03-08T00:28:47;100870.19;;;4.42;91.41
21988;BME280;11158;53.404;-1.510;2024-03-08T00:31:14;100867.56;;;4.38;92.01
21988;BME280;11158;53.404;-1.510;2024-03-08T00:33:41;100867.56;;;4.38;92.45
21988;BME280;11158;53.404;-1.510;2024-03-08T00:36:06;100872.84;;;4.36;92.38
21988;BME280;11158;53.404;-1.510;2024-03-08T00:38:32;100861.44;;;4.36;92.70
21988;BME280;11158;53.404;-1.510;2024-03-08T00:40:59;100855.28;;;4.37;93.21
21988;BME280;11158;53.404;-1.510;2024-03-08T00:43:25;100861.50;;;4.33;93.95
21988;BME280;11158;53.404;-1.510;2024-03-08T00:45:51;100856.22;;;4.33;94.29
21988;BME280;11158;53.404;-1.510;2024-03-08T00:48:17;100857.97;;;4.30;94.72
21988;BME280;11158;53.404;-1.510;2024-03-08T00:50:42;100857.94;;;4.34;95.35
21988;BME280;11158;53.404;-1.510;2024-03-08T00:53:11;100843.03;;;4.28;95.81
21988;BME280;11158;53.404;-1.510;2024-03-08T00:55:36;100848.31;;;4.31;96.36
21988;BME280;11158;53.404;-1.510;2024-03-08T00:58:01;100847.38;;;4.35;95.47
21988;BME280;11158;53.404;-1.510;2024-03-08T01:00:27;100837.66;;;4.40;96.72
21988;BME280;11158;53.404;-1.510;2024-03-08T01:02:53;100839.44;;;4.38;96.16
21988;BME280;11158;53.404;-1.510;2024-03-08T01:05:18;100834.19;;;4.37;97.15
21988;BME280;11158;53.404;-1.510;2024-03-08T01:07:44;100833.25;;;4.41;97.67
21988;BME280;11158;53.404;-1.510;2024-03-08T01:10:11;100818.28;;;4.41;97.58
21988;BME280;11158;53.404;-1.510;2024-03-08T01:12:38;100820.97;;;4.38;98.92
21988;BME280;11158;53.404;-1.510;2024-03-08T01:15:04;100813.94;;;4.37;98.44
21988;BME280;11158;53.404;-1.510;2024-03-08T01:17:30;100805.16;;;4.37;99.46
21988;BME280;11158;53.404;-1.510;2024-03-08T01:19:56;100802.44;;;4.46;99.42
21988;BME280;11158;53.404;-1.510;2024-03-08T01:22:21;100797.19;;;4.40;100.00
21988;BME280;11158;53.404;-1.510;2024-03-08T01:24:48;100804.13;;;4.50;100.00
21988;BME280;11158;53.404;-1.510;2024-03-08T01:27:13;100789.19;;;4.49;100.00
21988;BME280;11158;53.404;-1.510;2024-03-08T01:29:39;100785.69;;;4.44;100.00
21988;BME280;11158;53.404;-1.510;2024-03-08T01:32:04;100777.78;;;4.44;100.00
21988;BME280;11158;53.404;-1.510;2024-03-08T01:34:31;100774.34;;;4.39;100.00
21988;BME280;11158;53.404;-1.510;2024-03-08T01:36:58;100784.81;;;4.45;100.00
21988;BME280;11158;53.404;-1.510;2024-03-08T01:39:24;100778.69;;;4.43;100.00
21988;BME280;11158;53.404;-1.510;2024-03-08T01:41:50;100780.47;;;4.42;100.00
21988;BME280;11158;53.404;-1.510;2024-03-08T01:44:15;100769.06;;;4.39;100.00
21988;BME280;11158;53.404;-1.510;2024-03-08T01:46:44;100770.78;;;4.41;100.00
21988;BME280;11158;53.404;-1.510;2024-03-08T01:49:11;100774.25;;;4.48;100.00
21988;BME280;11158;53.404;-1.510;2024-03-08T01:51:38;100768.13;;;4.44;100.00
21988;BME280;11158;53.404;-1.510;2024-03-08T01:54:06;100768.06;;;4.49;100.00
21988;BME280;11158;53.404;-1.510;2024-03-08T01:56:32;100753.16;;;4.46;100.00
21988;BME280;11158;53.404;-1.510;2024-03-08T01:58:59;100752.19;;;4.52;100.00
21988;BME280;11158;53.404;-1.510;2024-03-08T02:01:25;100750.50;;;4.48;100.00
21988;BME280;11158;53.404;-1.510;2024-03-08T02:03:51;100749.56;;;4.50;100.00
21988;BME280;11158;53.404;-1.510;2024-03-08T02:06:16;100742.56;;;4.48;100.00
21988;BME280;11158;53.404;-1.510;2024-03-08T02:08:45;100745.16;;;4.49;100.00
21988;BME280;11158;53.404;-1.510;2024-03-08T02:11:12;100732.78;;;4.59;100.00
21988;BME280;11158;53.404;-1.510;2024-03-08T02:13:38;100726.56;;;4.62;100.00
21988;BME280;11158;53.404;-1.510;2024-03-08T02:16:04;100725.75;;;4.55;100.00
21988;BME280;11158;53.404;-1.510;2024-03-08T02:18:30;100721.41;;;4.53;100.00
21988;BME280;11158;53.404;-1.510;2024-03-08T02:21:00;100718.75;;;4.51;100.00
21988;BME280;11158;53.404;-1.510;2024-03-08T02:23:26;100717.84;;;4.55;100.00
21988;BME280;11158;53.404;-1.510;2024-03-08T02:25:53;100710.84;;;4.51;100.00
21988;BME280;11158;53.404;-1.510;2024-03-08T02:28:19;100714.28;;;4.59;100.00
21988;BME280;11158;53.404;-1.510;2024-03-08T02:30:48;100702.81;;;4.60;100.00
21988;BME280;11158;53.404;-1.510;2024-03-08T02:33:14;100698.47;;;4.58;100.00
21988;BME280;11158;53.404;-1.510;2024-03-08T02:35:46;100697.56;;;4.59;100.00
21988;BME280;11158;53.404;-1.510;2024-03-08T02:38:16;100691.31;;;4.64;100.00
21988;BME280;11158;53.404;-1.510;2024-03-08T02:40:44;100692.25;;;4.63;100.00
21988;BME280;11158;53.404;-1.510;2024-03-08T02:43:10;100693.97;;;4.64;100.00
21988;BME280;11158;53.404;-1.510;2024-03-08T02:45:36;100686.06;;;4.63;100.00
21988;BME280;11158;53.404;-1.510;2024-03-08T02:48:01;100677.25;;;4.65;100.00
21988;BME280;11158;53.404;-1.510;2024-03-08T02:50:27;100674.63;;;4.64;100.00
21988;BME280;11158;53.404;-1.510;2024-03-08T02:52:52;100683.41;;;4.63;100.00
21988;BME280;11158;53.404;-1.510;2024-03-08T02:55:17;100676.34;;;4.66;100.00
21988;BME280;11158;53.404;-1.510;2024-03-08T02:57:43;100666.72;;;4.62;100.00
21988;BME280;11158;53.404;-1.510;2024-03-08T03:00:09;100667.59;;;4.63;100.00
21988;BME280;11158;53.404;-1.510;2024-03-08T03:02:35;100662.31;;;4.63;100.00
21988;BME280;11158;53.404;-1.510;2024-03-08T03:05:01;100663.19;;;4.65;100.00
21988;BME280;11158;53.404;-1.510;2024-03-08T03:07:30;100659.59;;;4.69;100.00
21988;BME280;11158;53.404;-1.510;2024-03-08T03:09:56;100656.91;;;4.72;100.00
21988;BME280;11158;53.404;-1.510;2024-03-08T03:12:21;100650.84;;;4.67;100.00
21988;BME280;11158;53.404;-1.510;2024-03-08T03:14:48;100645.50;;;4.68;100.00
21988;BME280;11158;53.404;-1.510;2024-03-08T03:17:13;100648.13;;;4.70;100.00
21988;BME280;11158;53.404;-1.510;2024-03-08T03:19:40;100649.94;;;4.68;100.00
21988;BME280;11158;53.404;-1.510;2024-03-08T03:22:07;100644.63;;;4.69;100.00
21988;BME280;11158;53.404;-1.510;2024-03-08T03:24:34;100634.06;;;4.71;100.00
21988;BME280;11158;53.404;-1.510;2024-03-08T03:27:03;100634.94;;;4.68;100.00
21988;BME280;11158;53.404;-1.510;2024-03-08T03:29:42;100633.25;;;4.66;100.00
21988;BME280;11158;53.404;-1.510;2024-03-08T03:32:13;100626.13;;;4.73;100.00
21988;BME280;11158;53.404;-1.510;2024-03-08T03:34:39;100628.78;;;4.69;100.00
21988;BME280;11158;53.404;-1.510;2024-03-08T03:37:06;100614.75;;;4.67;100.00
21988;BME280;11158;53.404;-1.510;2024-03-08T03:39:37;100613.84;;;4.68;100.00
21988;BME280;11158;53.404;-1.510;2024-03-08T03:42:17;100621.78;;;4.67;100.00
21988;BME280;11158;53.404;-1.510;2024-03-08T03:44:47;100622.63;;;4.71;100.00
21988;BME280;11158;53.404;-1.510;2024-03-08T03:47:13;100621.75;;;4.68;100.00
21988;BME280;11158;53.404;-1.510;2024-03-08T03:49:40;100620.84;;;4.71;100.00
21988;BME280;11158;53.404;-1.510;2024-03-08T03:52:06;100620.00;;;4.71;100.00
21988;BME280;11158;53.404;-1.510;2024-03-08T03:54:31;100614.72;;;4.71;100.00
21988;BME280;11158;53.404;-1.510;2024-03-08T03:56:58;100605.09;;;4.65;100.00
21988;BME280;11158;53.404;-1.510;2024-03-08T03:59:23;100607.66;;;4.69;100.00
21988;BME280;11158;53.404;-1.510;2024-03-08T04:01:49;100598.91;;;4.67;100.00
21988;BME280;11158;53.404;-1.510;2024-03-08T04:04:15;100588.25;;;4.74;100.00
21988;BME280;11158;53.404;-1.510;2024-03-08T04:06:40;100601.47;;;4.72;100.00
21988;BME280;11158;53.404;-1.510;2024-03-08T04:09:06;100595.41;;;4.67;100.00
21988;BME280;11158;53.404;-1.510;2024-03-08T04:11:31;100589.19;;;4.69;100.00
21988;BME280;11158;53.404;-1.510;2024-03-08T04:13:57;100590.94;;;4.71;100.00
21988;BME280;11158;53.404;-1.510;2024-03-08T04:16:22;100582.97;;;4.74;100.00
21988;BME280;11158;53.404;-1.510;2024-03-08T04:18:49;100582.13;;;4.70;100.00
21988;BME280;11158;53.404;-1.510;2024-03-08T04:21:14;100580.34;;;4.72;100.00
21988;BME280;11158;53.404;-1.510;2024-03-08T04:23:39;100583.03;;;4.71;100.00
21988;BME280;11158;53.404;-1.510;2024-03-08T04:26:05;100583.03;;;4.69;100.00
21988;BME280;11158;53.404;-1.510;2024-03-08T04:28:31;100576.88;;;4.68;100.00
21988;BME280;11158;53.404;-1.510;2024-03-08T04:31:01;100578.53;;;4.74;100.00
21988;BME280;11158;53.404;-1.510;2024-03-08T04:33:26;100569.75;;;4.74;100.00
21988;BME280;11158;53.404;-1.510;2024-03-08T04:35:53;100572.41;;;4.74;100.00
21988;BME280;11158;53.404;-1.510;2024-03-08T04:38:18;100570.63;;;4.74;100.00
21988;BME280;11158;53.404;-1.510;2024-03-08T04:40:44;100567.13;;;4.74;100.00
21988;BME280;11158;53.404;-1.510;2024-03-08T04:43:10;100569.81;;;4.71;100.00
21988;BME280;11158;53.404;-1.510;2024-03-08T04:45:36;100567.13;;;4.74;100.00
21988;BME280;11158;53.404;-1.510;2024-03-08T04:48:02;100567.13;;;4.74;100.00
21988;BME280;11158;53.404;-1.510;2024-03-08T04:50:28;100563.53;;;4.78;100.00
21988;BME280;11158;53.404;-1.510;2024-03-08T04:52:56;100559.19;;;4.74;100.00
21988;BME280;11158;53.404;-1.510;2024-03-08T04:55:21;100560.06;;;4.74;100.00
21988;BME280;11158;53.404;-1.510;2024-03-08T04:57:48;100551.28;;;4.74;100.00
21988;BME280;11158;53.404;-1.510;2024-03-08T05:00:14;100551.28;;;4.74;100.00
21988;BME280;11158;53.404;-1.510;2024-03-08T05:02:41;100548.63;;;4.74;100.00
21988;BME280;11158;53.404;-1.510;2024-03-08T05:05:07;100555.75;;;4.68;100.00
21988;BME280;11158;53.404;-1.510;2024-03-08T05:07:41;100555.69;;;4.75;100.00
21988;BME280;11158;53.404;-1.510;2024-03-08T05:10:10;100543.38;;;4.72;100.00
21988;BME280;11158;53.404;-1.510;2024-03-08T05:12:36;100550.38;;;4.76;100.00
21988;BME280;11158;53.404;-1.510;2024-03-08T05:15:03;100549.50;;;4.76;100.00
21988;BME280;11158;53.404;-1.510;2024-03-08T05:17:30;100547.69;;;4.78;100.00
21988;BME280;11158;53.404;-1.510;2024-03-08T05:19:55;100539.81;;;4.76;100.00
21988;BME280;11158;53.404;-1.510;2024-03-08T05:22:21;100533.72;;;4.73;100.00
21988;BME280;11158;53.404;-1.510;2024-03-08T05:24:47;100539.78;;;4.78;100.00
21988;BME280;11158;53.404;-1.510;2024-03-08T05:27:13;100543.34;;;4.74;100.00
21988;BME280;11158;53.404;-1.510;2024-03-08T05:29:38;100530.16;;;4.74;100.00
21988;BME280;11158;53.404;-1.510;2024-03-08T05:32:04;100531.00;;;4.76;100.00
21988;BME280;11158;53.404;-1.510;2024-03-08T05:34:29;100533.66;;;4.74;100.00
21988;BME280;11158;53.404;-1.510;2024-03-08T05:36:55;100526.66;;;4.73;100.00
21988;BME280;11158;53.404;-1.510;2024-03-08T05:39:20;100525.81;;;4.69;100.00
21988;BME280;11158;53.404;-1.510;2024-03-08T05:41:46;100520.44;;;4.76;100.00
21988;BME280;11158;53.404;-1.510;2024-03-08T05:44:12;100524.97;;;4.69;100.00
21988;BME280;11158;53.404;-1.510;2024-03-08T05:46:39;100526.63;;;4.75;100.00
21988;BME280;11158;53.404;-1.510;2024-03-08T05:49:05;100521.38;;;4.72;100.00
21988;BME280;11158;53.404;-1.510;2024-03-08T05:51:35;100524.88;;;4.74;100.00
21988;BME280;11158;53.404;-1.510;2024-03-08T05:54:05;100518.66;;;4.78;100.00
21988;BME280;11158;53.404;-1.510;2024-03-08T05:56:33;100515.22;;;4.73;100.00
21988;BME280;11158;53.404;-1.510;2024-03-08T05:58:59;100514.34;;;4.72;100.00
21988;BME280;11158;53.404;-1.510;2024-03-08T06:01:25;100522.19;;;4.77;100.00
21988;BME280;11158;53.404;-1.510;2024-03-08T06:03:51;100514.34;;;4.72;100.00
21988;BME280;11158;53.404;-1.510;2024-03-08T06:06:19;100507.34;;;4.69;100.00
21988;BME280;11158;53.404;-1.510;2024-03-08T06:08:46;100502.94;;;4.68;100.00
21988;BME280;11158;53.404;-1.510;2024-03-08T06:11:14;100502.06;;;4.69;100.00
21988;BME280;11158;53.404;-1.510;2024-03-08T06:13:40;100494.97;;;4.75;100.00
21988;BME280;11158;53.404;-1.510;2024-03-08T06:16:05;100498.50;;;4.72;100.00
21988;BME280;11158;53.404;-1.510;2024-03-08T06:18:33;100490.63;;;4.71;100.00
21988;BME280;11158;53.404;-1.510;2024-03-08T06:21:02;100497.66;;;4.70;100.00
21988;BME280;11158;53.404;-1.510;2024-03-08T06:23:27;100495.94;;;4.69;100.00
21988;BME280;11158;53.404;-1.510;2024-03-08T06:25:53;100495.84;;;4.72;100.00
21988;BME280;11158;53.404;-1.510;2024-03-08T06:28:19;100498.53;;;4.71;100.00
21988;BME280;11158;53.404;-1.510;2024-03-08T06:30:45;100495.94;;;4.69;100.00
21988;BME280;11158;53.404;-1.510;2024-03-08T06:33:10;100495.97;;;4.64;100.00
21988;BME280;11158;53.404;-1.510;2024-03-08T06:35:36;100492.38;;;4.68;100.00
21988;BME280;11158;53.404;-1.510;2024-03-08T06:38:04;100485.41;;;4.66;100.00
21988;BME280;11158;53.404;-1.510;2024-03-08T06:40:29;100489.81;;;4.67;100.00
21988;BME280;11158;53.404;-1.510;2024-03-08T06:42:54;100490.63;;;4.71;100.00
21988;BME280;11158;53.404;-1.510;2024-03-08T06:45:20;100481.91;;;4.65;100.00
21988;BME280;11158;53.404;-1.510;2024-03-08T06:47:47;100488.88;;;4.69;100.00
21988;BME280;11158;53.404;-1.510;2024-03-08T06:50:13;100488.88;;;4.68;100.00
21988;BME280;11158;53.404;-1.510;2024-03-08T06:52:40;100482.84;;;4.61;100.00
21988;BME280;11158;53.404;-1.510;2024-03-08T06:55:08;100486.22;;;4.69;100.00
21988;BME280;11158;53.404;-1.510;2024-03-08T06:57:40;100494.22;;;4.65;100.00
21988;BME280;11158;53.404;-1.510;2024-03-08T07:00:09;100486.34;;;4.63;100.00
21988;BME280;11158;53.404;-1.510;2024-03-08T07:02:37;100491.63;;;4.63;100.00
21988;BME280;11158;53.404;-1.510;2024-03-08T07:05:03;100487.22;;;4.62;100.00
21988;BME280;11158;53.404;-1.510;2024-03-08T07:07:29;100482.84;;;4.61;100.00
21988;BME280;11158;53.404;-1.510;2024-03-08T07:09:55;100481.88;;;4.67;100.00
21988;BME280;11158;53.404;-1.510;2024-03-08T07:12:22;100478.44;;;4.62;100.00
21988;BME280;11158;53.404;-1.510;2024-03-08T07:14:48;100477.59;;;4.58;100.00
21988;BME280;11158;53.404;-1.510;2024-03-08T07:17:14;100474.97;;;4.57;100.00
21988;BME280;11158;53.404;-1.510;2024-03-08T07:19:39;100474.00;;;4.62;100.00
21988;BME280;11158;53.404;-1.510;2024-03-08T07:22:05;100475.81;;;4.59;100.00
21988;BME280;11158;53.404;-1.510;2024-03-08T07:24:35;100476.63;;;4.64;100.00
21988;BME280;11158;53.404;-1.510;2024-03-08T07:27:04;100472.19;;;4.66;100.00
21988;BME280;11158;53.404;-1.510;2024-03-08T07:29:32;100467.00;;;4.61;100.00
21988;BME280;11158;53.404;-1.510;2024-03-08T07:31:58;100474.03;;;4.61;100.00
21988;BME280;11158;53.404;-1.510;2024-03-08T07:34:42;100459.09;;;4.61;100.00
21988;BME280;11158;53.404;-1.510;2024-03-08T07:37:07;100464.38;;;4.61;100.00
21988;BME280;11158;53.404;-1.510;2024-03-08T07:39:39;100459.09;;;4.61;100.00
21988;BME280;11158;53.404;-1.510;2024-03-08T07:42:05;100459.03;;;4.64;100.00
21988;BME280;11158;53.404;-1.510;2024-03-08T07:44:30;100453.84;;;4.60;100.00
21988;BME280;11158;53.404;-1.510;2024-03-08T07:46:57;100456.44;;;4.61;100.00
21988;BME280;11158;53.404;-1.510;2024-03-08T07:49:24;100456.38;;;4.64;100.00
21988;BME280;11158;53.404;-1.510;2024-03-08T07:51:49;100450.38;;;4.55;100.00
21988;BME280;11158;53.404;-1.510;2024-03-08T07:54:15;100449.41;;;4.60;100.00
21988;BME280;11158;53.404;-1.510;2024-03-08T07:56:40;100456.38;;;4.64;100.00
21988;BME280;11158;53.404;-1.510;2024-03-08T07:59:05;100452.00;;;4.65;100.00
21988;BME280;11158;53.404;-1.510;2024-03-08T08:01:31;100455.59;;;4.59;100.00
21988;BME280;11158;53.404;-1.510;2024-03-08T08:03:59;100444.06;;;4.65;100.00
21988;BME280;11158;53.404;-1.510;2024-03-08T08:06:26;100442.28;;;4.67;100.00
21988;BME280;11158;53.404;-1.510;2024-03-08T08:08:52;100439.63;;;4.67;99.61
21988;BME280;11158;53.404;-1.510;2024-03-08T08:11:17;100435.19;;;4.71;100.00
21988;BME280;11158;53.404;-1.510;2024-03-08T08:13:42;100430.81;;;4.66;99.90
21988;BME280;11158;53.404;-1.510;2024-03-08T08:16:09;100428.25;;;4.65;99.27
21988;BME280;11158;53.404;-1.510;2024-03-08T08:18:35;100423.81;;;4.65;98.58
21988;BME280;11158;53.404;-1.510;2024-03-08T08:21:01;100421.19;;;4.64;98.84
21988;BME280;11158;53.404;-1.510;2024-03-08T08:23:27;100425.53;;;4.66;99.61
21988;BME280;11158;53.404;-1.510;2024-03-08T08:25:52;100420.22;;;4.69;98.42
21988;BME280;11158;53.404;-1.510;2024-03-08T08:28:18;100416.75;;;4.67;98.34
21988;BME280;11158;53.404;-1.510;2024-03-08T08:30:46;100415.78;;;4.72;98.84
21988;BME280;11158;53.404;-1.510;2024-03-08T08:33:14;100409.78;;;4.63;98.43
21988;BME280;11158;53.404;-1.510;2024-03-08T08:35:40;100405.09;;;4.79;98.05
21988;BME280;11158;53.404;-1.510;2024-03-08T08:38:06;100407.81;;;4.76;97.66
21988;BME280;11158;53.404;-1.510;2024-03-08T08:40:33;100404.25;;;4.77;97.75
21988;BME280;11158;53.404;-1.510;2024-03-08T08:42:59;100392.72;;;4.81;97.86
21988;BME280;11158;53.404;-1.510;2024-03-08T08:45:25;100396.19;;;4.85;97.14
21988;BME280;11158;53.404;-1.510;2024-03-08T08:47:50;100389.28;;;4.78;96.87
21988;BME280;11158;53.404;-1.510;2024-03-08T08:50:16;100393.53;;;4.85;97.49
21988;BME280;11158;53.404;-1.510;2024-03-08T08:52:48;100390.03;;;4.84;97.14
21988;BME280;11158;53.404;-1.510;2024-03-08T08:55:14;100383.81;;;4.88;95.98
21988;BME280;11158;53.404;-1.510;2024-03-08T08:57:43;100381.31;;;4.81;95.90
21988;BME280;11158;53.404;-1.510;2024-03-08T09:00:10;100381.97;;;4.94;96.33
21988;BME280;11158;53.404;-1.510;2024-03-08T09:02:41;100383.78;;;4.90;95.54
21988;BME280;11158;53.404;-1.510;2024-03-08T09:05:07;100379.38;;;4.89;94.45
21988;BME280;11158;53.404;-1.510;2024-03-08T09:07:36;100372.09;;;5.03;93.78
21988;BME280;11158;53.404;-1.510;2024-03-08T09:10:03;100369.47;;;5.02;93.98
21988;BME280;11158;53.404;-1.510;2024-03-08T09:12:29;100364.94;;;5.08;93.14
21988;BME280;11158;53.404;-1.510;2024-03-08T09:14:54;100367.63;;;5.07;92.49
21988;BME280;11158;53.404;-1.510;2024-03-08T09:17:20;100358.59;;;5.17;93.06
21988;BME280;11158;53.404;-1.510;2024-03-08T09:19:49;100363.91;;;5.16;90.39
21988;BME280;11158;53.404;-1.510;2024-03-08T09:22:15;100350.81;;;5.09;90.05
21988;BME280;11158;53.404;-1.510;2024-03-08T09:24:40;100354.25;;;5.15;89.77
21988;BME280;11158;53.404;-1.510;2024-03-08T09:27:06;100352.47;;;5.15;90.25
21988;BME280;11158;53.404;-1.510;2024-03-08T09:29:31;100347.13;;;5.20;88.84
21988;BME280;11158;53.404;-1.510;2024-03-08T09:31:56;100339.88;;;5.28;88.30
21988;BME280;11158;53.404;-1.510;2024-03-08T09:34:22;100338.81;;;5.37;88.35
21988;BME280;11158;53.404;-1.510;2024-03-08T09:36:47;100337.09;;;5.36;87.25
21988;BME280;11158;53.404;-1.510;2024-03-08T09:39:13;100335.38;;;5.33;87.50
21988;BME280;11158;53.404;-1.510;2024-03-08T09:41:45;100330.00;;;5.36;86.89
21988;BME280;11158;53.404;-1.510;2024-03-08T09:44:14;100312.38;;;5.37;86.60
21988;BME280;11158;53.404;-1.510;2024-03-08T09:46:40;100322.88;;;5.41;85.79
21988;BME280;11158;53.404;-1.510;2024-03-08T09:49:06;100313.13;;;5.43;82.62
21988;BME280;11158;53.404;-1.510;2024-03-08T09:51:34;100323.50;;;5.53;82.58
21988;BME280;11158;53.404;-1.510;2024-03-08T09:54:03;100317.34;;;5.52;83.45
21988;BME280;11158;53.404;-1.510;2024-03-08T09:56:32;100301.56;;;5.47;83.31
21988;BME280;11158;53.404;-1.510;2024-03-08T09:58:58;100307.84;;;5.43;82.85
21988;BME280;11158;53.404;-1.510;2024-03-08T10:01:42;100313.00;;;5.48;81.77
21988;BME280;11158;53.404;-1.510;2024-03-08T10:04:07;100299.56;;;5.59;82.08
21988;BME280;11158;53.404;-1.510;2024-03-08T10:06:34;100294.13;;;5.65;81.46
21988;BME280;11158;53.404;-1.510;2024-03-08T10:09:00;100289.63;;;5.68;79.89
21988;BME280;11158;53.404;-1.510;2024-03-08T10:11:25;100298.50;;;5.67;80.69
21988;BME280;11158;53.404;-1.510;2024-03-08T10:13:52;100287.28;;;5.58;80.41
21988;BME280;11158;53.404;-1.510;2024-03-08T10:16:17;100288.09;;;5.60;81.35
21988;BME280;11158;53.404;-1.510;2024-03-08T10:18:45;100281.81;;;5.65;82.32
21988;BME280;11158;53.404;-1.510;2024-03-08T10:21:11;100270.41;;;5.63;79.09
21988;BME280;11158;53.404;-1.510;2024-03-08T10:23:36;100269.28;;;5.72;79.54
21988;BME280;11158;53.404;-1.510;2024-03-08T10:26:18;100261.72;;;5.57;79.04
21988;BME280;11158;53.404;-1.510;2024-03-08T10:28:50;100274.81;;;5.61;79.88
21988;BME280;11158;53.404;-1.510;2024-03-08T10:31:17;100275.00;;;5.54;79.03
21988;BME280;11158;53.404;-1.510;2024-03-08T10:33:44;100260.09;;;5.51;79.66
21988;BME280;11158;53.404;-1.510;2024-03-08T10:36:10;100255.75;;;5.48;79.45
21988;BME280;11158;53.404;-1.510;2024-03-08T10:38:41;100265.25;;;5.56;79.71
21988;BME280;11158;53.404;-1.510;2024-03-08T10:41:10;100258.44;;;5.47;77.56
21988;BME280;11158;53.404;-1.510;2024-03-08T10:44:01;100253.28;;;5.41;77.67
21988;BME280;11158;53.404;-1.510;2024-03-08T10:49:08;100251.75;;;5.68;78.43
21988;BME280;11158;53.404;-1.510;2024-03-08T10:51:37;100248.50;;;5.57;77.48
21988;BME280;11158;53.404;-1.510;2024-03-08T10:54:04;100248.44;;;5.60;78.11
21988;BME280;11158;53.404;-1.510;2024-03-08T10:56:32;100248.44;;;5.60;77.86
21988;BME280;11158;53.404;-1.510;2024-03-08T10:58:58;100229.31;;;5.48;78.18
21988;BME280;11158;53.404;-1.510;2024-03-08T11:01:23;100238.00;;;5.54;78.88
21988;BME280;11158;53.404;-1.510;2024-03-08T11:03:51;100236.28;;;5.53;75.65
21988;BME280;11158;53.404;-1.510;2024-03-08T11:08:56;100231.91;;;5.50;75.01
21988;BME280;11158;53.404;-1.510;2024-03-08T11:11:32;100217.00;;;5.47;72.62
21988;BME280;11158;53.404;-1.510;2024-03-08T11:14:00;100223.06;;;5.53;72.15
21988;BME280;11158;53.404;-1.510;2024-03-08T11:19:00;100221.88;;;5.64;69.92
21988;BME280;11158;53.404;-1.510;2024-03-08T11:21:30;100215.09;;;5.54;70.49
21988;BME280;11158;53.404;-1.510;2024-03-08T11:24:06;100216.78;;;5.57;72.45
21988;BME280;11158;53.404;-1.510;2024-03-08T11:26:33;100211.28;;;5.66;74.66
21988;BME280;11158;53.404;-1.510;2024-03-08T11:32:12;100214.91;;;5.62;75.69
21988;BME280;11158;53.404;-1.510;2024-03-08T11:34:40;100216.94;;;5.51;75.51
21988;BME280;11158;53.404;-1.510;2024-03-08T11:37:15;100211.91;;;5.40;74.92
21988;BME280;11158;53.404;-1.510;2024-03-08T11:39:50;100204.88;;;5.39;74.61
21988;BME280;11158;53.404;-1.510;2024-03-08T11:42:16;100210.19;;;5.37;73.80
21988;BME280;11158;53.404;-1.510;2024-03-08T11:44:47;100200.25;;;5.48;74.58
21988;BME280;11158;53.404;-1.510;2024-03-08T11:47:14;100205.53;;;5.48;74.66
21988;BME280;11158;53.404;-1.510;2024-03-08T11:49:41;100201.47;;;5.34;71.87
21988;BME280;11158;53.404;-1.510;2024-03-08T11:52:15;100190.81;;;5.37;71.48
21988;BME280;11158;53.404;-1.510;2024-03-08T11:54:41;100191.75;;;5.34;71.38
21988;BME280;11158;53.404;-1.510;2024-03-08T11:57:09;100187.28;;;5.38;71.12
21988;BME280;11158;53.404;-1.510;2024-03-08T11:59:35;100188.31;;;5.31;70.82
21988;BME280;11158;53.404;-1.510;2024-03-08T12:02:01;100189.03;;;5.39;71.55
21988;BME280;11158;53.404;-1.510;2024-03-08T12:04:27;100175.81;;;5.39;69.84
21988;BME280;11158;53.404;-1.510;2024-03-08T12:06:53;100177.53;;;5.40;69.90
21988;BME280;11158;53.404;-1.510;2024-03-08T12:09:18;100170.28;;;5.48;68.83
21988;BME280;11158;53.404;-1.510;2024-03-08T12:11:50;100172.81;;;5.54;69.75
21988;BME280;11158;53.404;-1.510;2024-03-08T12:14:16;100157.63;;;5.61;69.08
21988;BME280;11158;53.404;-1.510;2024-03-08T12:16:41;100156.63;;;5.66;69.73
21988;BME280;11158;53.404;-1.510;2024-03-08T12:19:08;100143.50;;;5.63;69.10
21988;BME280;11158;53.404;-1.510;2024-03-08T12:21:35;100148.69;;;5.66;68.34
21988;BME280;11158;53.404;-1.510;2024-03-08T12:24:08;100131.09;;;5.65;68.67
21988;BME280;11158;53.404;-1.510;2024-03-08T12:26:38;100139.69;;;5.74;69.21
21988;BME280;11158;53.404;-1.510;2024-03-08T12:32:00;100127.91;;;5.85;69.22
21988;BME280;11158;53.404;-1.510;2024-03-08T12:34:26;100120.34;;;6.06;69.49
21988;BME280;11158;53.404;-1.510;2024-03-08T12:36:53;100117.34;;;6.18;67.61
21988;BME280;11158;53.404;-1.510;2024-03-08T12:39:19;100101.47;;;6.18;66.88
21988;BME280;11158;53.404;-1.510;2024-03-08T12:41:48;100107.28;;;6.31;65.35
21988;BME280;11158;53.404;-1.510;2024-03-08T12:44:17;100100.28;;;6.30;65.33
21988;BME280;11158;53.404;-1.510;2024-03-08T12:46:44;100094.72;;;6.39;64.71
21988;BME280;11158;53.404;-1.510;2024-03-08T12:49:10;100096.41;;;6.42;64.63
21988;BME280;11158;53.404;-1.510;2024-03-08T12:51:37;100099.63;;;6.52;65.43
21988;BME280;11158;53.404;-1.510;2024-03-08T12:54:04;100101.31;;;6.54;65.76
21988;BME280;11158;53.404;-1.510;2024-03-08T12:56:34;100086.06;;;6.33;65.97
21988;BME280;11158;53.404;-1.510;2024-03-08T12:59:00;100091.00;;;6.15;67.70